sensor_id;sensor_type;location;lat;lon;timestamp;pressure;altitude;pressure_sealevel;temperature;humidity
79067;BME280;68470;50.224;14.348;2023-03-14T00:01:38;97736.31;;;7.96;90.92
79067;BME280;68470;50.224;14.348;2023-03-14T00:04:04;97744.78;;;8.00;90.64
79067;BME280;68470;50.224;14.348;2023-03-14T00:06:31;97743.91;;;8.04;90.29
79067;BME280;68470;50.224;14.348;2023-03-14T00:08:57;97729.16;;;8.00;89.81
79067;BME280;68470;50.224;14.348;2023-03-14T00:11:23;97741.78;;;7.96;90.84
79067;BME280;68470;50.224;14.348;2023-03-14T00:13:52;97743.03;;;7.80;91.29
79067;BME280;68470;50.224;14.348;2023-03-14T00:16:19;97735.97;;;7.74;91.74
79067;BME280;68470;50.224;14.348;2023-03-14T00:18:45;97730.50;;;7.74;91.23
79067;BME280;68470;50.224;14.348;2023-03-14T00:21:12;97717.66;;;7.69;91.50
79067;BME280;68470;50.224;14.348;2023-03-14T00:23:39;97708.03;;;7.72;92.01
79067;BME280;68470;50.224;14.348;2023-03-14T00:26:09;97717.91;;;7.73;92.30
79067;BME280;68470;50.224;14.348;2023-03-14T00:28:35;97714.09;;;7.69;92.34
79067;BME280;68470;50.224;14.348;2023-03-14T00:31:06;97694.50;;;7.85;91.92
79067;BME280;68470;50.224;14.348;2023-03-14T00:33:32;97687.91;;;7.87;91.36
79067;BME280;68470;50.224;14.348;2023-03-14T00:36:01;97669.97;;;7.75;91.71
79067;BME280;68470;50.224;14.348;2023-03-14T00:38:27;97637.41;;;7.69;91.85
79067;BME280;68470;50.224;14.348;2023-03-14T00:40:54;97594.78;;;7.63;92.73
79067;BME280;68470;50.224;14.348;2023-03-14T00:43:20;97552.88;;;7.62;92.65
79067;BME280;68470;50.224;14.348;2023-03-14T00:45:50;97569.53;;;7.66;92.74
79067;BME280;68470;50.224;14.348;2023-03-14T00:48:18;97577.41;;;7.72;92.22
79067;BME280;68470;50.224;14.348;2023-03-14T00:50:45;97567.75;;;7.80;91.84
79067;BME280;68470;50.224;14.348;2023-03-14T00:53:11;97576.41;;;7.87;91.66
79067;BME280;68470;50.224;14.348;2023-03-14T00:55:39;97592.56;;;7.89;91.23
79067;BME280;68470;50.224;14.348;2023-03-14T00:58:05;97574.75;;;7.91;91.27
79067;BME280;68470;50.224;14.348;2023-03-14T01:00:32;97564.72;;;7.81;91.30
79067;BME280;68470;50.224;14.348;2023-03-14T01:02:58;97525.84;;;7.79;91.82
79067;BME280;68470;50.224;14.348;2023-03-14T01:05:24;97516.97;;;7.88;91.26
79067;BME280;68470;50.224;14.348;2023-03-14T01:07:50;97512.97;;;7.80;91.39
79067;BME280;68470;50.224;14.348;2023-03-14T01:10:16;97487.88;;;7.73;91.69
79067;BME280;68470;50.224;14.348;2023-03-14T01:12:42;97481.84;;;7.71;92.24
79067;BME280;68470;50.224;14.348;2023-03-14T01:15:09;97498.94;;;7.63;92.61
79067;BME280;68470;50.224;14.348;2023-03-14T01:17:35;97495.03;;;7.69;92.40
79067;BME280;68470;50.224;14.348;2023-03-14T01:20:04;97490.66;;;7.68;92.23
79067;BME280;68470;50.224;14.348;2023-03-14T01:22:30;97480.28;;;7.65;92.04
79067;BME280;68470;50.224;14.348;2023-03-14T01:24:56;97474.81;;;7.65;91.89
79067;BME280;68470;50.224;14.348;2023-03-14T01:27:22;97498.22;;;7.52;92.51
79067;BME280;68470;50.224;14.348;2023-03-14T01:29:48;97508.88;;;7.53;92.25
79067;BME280;68470;50.224;14.348;2023-03-14T01:32:18;97501.56;;;7.49;92.94
79067;BME280;68470;50.224;14.348;2023-03-14T01:34:51;97485.50;;;7.42;93.05
79067;BME280;68470;50.224;14.348;2023-03-14T01:37:17;97521.59;;;7.44;93.44
79067;BME280;68470;50.224;14.348;2023-03-14T01:39:43;97509.69;;;7.30;93.49
79067;BME280;68470;50.224;14.348;2023-03-14T01:42:09;97505.34;;;7.29;93.22
79067;BME280;68470;50.224;14.348;2023-03-14T01:44:52;97476.97;;;7.20;93.75
79067;BME280;68470;50.224;14.348;2023-03-14T01:47:19;97479.97;;;7.23;93.60
79067;BME280;68470;50.224;14.348;2023-03-14T01:50:11;97474.06;;;7.35;94.03
79067;BME280;68470;50.224;14.348;2023-03-14T01:52:42;97476.50;;;7.37;93.81
79067;BME280;68470;50.224;14.348;2023-03-14T01:55:13;97475.38;;;7.43;93.94
79067;BME280;68470;50.224;14.348;2023-03-14T01:57:47;97507.44;;;7.37;93.66
79067;BME280;68470;50.224;14.348;2023-03-14T02:00:16;97485.66;;;7.27;93.58
79067;BME280;68470;50.224;14.348;2023-03-14T02:02:46;97507.59;;;7.22;93.56
79067;BME280;68470;50.224;14.348;2023-03-14T02:05:16;97509.78;;;7.20;93.70
79067;BME280;68470;50.224;14.348;2023-03-14T02:07:50;97520.84;;;7.10;93.55
79067;BME280;68470;50.224;14.348;2023-03-14T02:10:18;97518.16;;;7.05;94.43
79067;BME280;68470;50.224;14.348;2023-03-14T02:12:46;97513.19;;;7.12;93.73
79067;BME280;68470;50.224;14.348;2023-03-14T02:15:12;97522.50;;;7.11;93.94
79067;BME280;68470;50.224;14.348;2023-03-14T02:17:40;97504.69;;;7.13;93.90
79067;BME280;68470;50.224;14.348;2023-03-14T02:20:27;97506.78;;;7.21;94.23
79067;BME280;68470;50.224;14.348;2023-03-14T02:22:56;97512.66;;;7.10;94.93
79067;BME280;68470;50.224;14.348;2023-03-14T02:28:09;97521.44;;;7.07;94.66
79067;BME280;68470;50.224;14.348;2023-03-14T02:30:36;97511.31;;;7.07;94.96
79067;BME280;68470;50.224;14.348;2023-03-14T02:33:13;97511.91;;;6.99;94.77
79067;BME280;68470;50.224;14.348;2023-03-14T02:35:43;97509.78;;;6.96;94.04
79067;BME280;68470;50.224;14.348;2023-03-14T02:38:22;97510.94;;;6.85;95.15
79067;BME280;68470;50.224;14.348;2023-03-14T02:40:50;97520.50;;;6.87;95.05
79067;BME280;68470;50.224;14.348;2023-03-14T02:43:16;97509.53;;;6.92;94.87
79067;BME280;68470;50.224;14.348;2023-03-14T02:45:47;97486.03;;;6.91;94.26
79067;BME280;68470;50.224;14.348;2023-03-14T02:48:22;97480.03;;;6.89;94.65
79067;BME280;68470;50.224;14.348;2023-03-14T02:50:53;97458.69;;;6.91;95.03
79067;BME280;68470;50.224;14.348;2023-03-14T02:53:24;97465.09;;;7.06;94.18
79067;BME280;68470;50.224;14.348;2023-03-14T02:55:50;97440.63;;;6.90;94.60
79067;BME280;68470;50.224;14.348;2023-03-14T02:58:17;97444.47;;;6.89;94.60
79067;BME280;68470;50.224;14.348;2023-03-14T03:00:43;97439.56;;;6.86;94.68
79067;BME280;68470;50.224;14.348;2023-03-14T03:03:09;97434.44;;;6.80;94.75
79067;BME280;68470;50.224;14.348;2023-03-14T03:05:35;97419.19;;;6.74;94.73
79067;BME280;68470;50.224;14.348;2023-03-14T03:08:01;97427.44;;;6.69;95.50
79067;BME280;68470;50.224;14.348;2023-03-14T03:10:28;97434.94;;;6.58;95.14
79067;BME280;68470;50.224;14.348;2023-03-14T03:13:01;97431.69;;;6.51;95.26
79067;BME280;68470;50.224;14.348;2023-03-14T03:15:28;97445.47;;;6.41;94.99
79067;BME280;68470;50.224;14.348;2023-03-14T03:17:54;97437.63;;;6.29;94.73
79067;BME280;68470;50.224;14.348;2023-03-14T03:20:20;97447.41;;;6.35;94.92
79067;BME280;68470;50.224;14.348;2023-03-14T03:22:46;97442.22;;;6.33;95.04
79067;BME280;68470;50.224;14.348;2023-03-14T03:25:12;97427.78;;;6.28;95.00
79067;BME280;68470;50.224;14.348;2023-03-14T03:27:38;97420.47;;;6.23;95.67
79067;BME280;68470;50.224;14.348;2023-03-14T03:30:05;97407.69;;;6.14;95.81
79067;BME280;68470;50.224;14.348;2023-03-14T03:32:31;97417.16;;;6.21;96.01
79067;BME280;68470;50.224;14.348;2023-03-14T03:34:57;97406.75;;;6.28;95.81
79067;BME280;68470;50.224;14.348;2023-03-14T03:37:23;97400.13;;;6.34;96.19
79067;BME280;68470;50.224;14.348;2023-03-14T03:39:52;97401.53;;;6.32;95.82
79067;BME280;68470;50.224;14.348;2023-03-14T03:42:18;97395.81;;;6.28;96.62
79067;BME280;68470;50.224;14.348;2023-03-14T03:44:45;97400.22;;;6.24;96.07
79067;BME280;68470;50.224;14.348;2023-03-14T03:47:10;97418.50;;;6.29;96.03
79067;BME280;68470;50.224;14.348;2023-03-14T03:49:36;97436.84;;;6.23;95.87
79067;BME280;68470;50.224;14.348;2023-03-14T03:52:02;97428.44;;;6.15;95.80
79067;BME280;68470;50.224;14.348;2023-03-14T03:54:28;97435.53;;;6.16;95.55
79067;BME280;68470;50.224;14.348;2023-03-14T03:56:57;97438.25;;;6.16;95.49
79067;BME280;68470;50.224;14.348;2023-03-14T03:59:23;97444.53;;;6.16;95.17
79067;BME280;68470;50.224;14.348;2023-03-14T04:01:49;97463.41;;;6.13;94.96
79067;BME280;68470;50.224;14.348;2023-03-14T04:04:15;97464.81;;;6.10;95.91
79067;BME280;68470;50.224;14.348;2023-03-14T04:06:40;97471.56;;;6.18;95.40
79067;BME280;68470;50.224;14.348;2023-03-14T04:09:09;97465.53;;;6.21;95.57
79067;BME280;68470;50.224;14.348;2023-03-14T04:11:35;97461.06;;;6.35;95.65
79067;BME280;68470;50.224;14.348;2023-03-14T04:14:01;97456.41;;;6.36;95.40
79067;BME280;68470;50.224;14.348;2023-03-14T04:16:27;97440.81;;;6.36;94.78
79067;BME280;68470;50.224;14.348;2023-03-14T04:18:53;97439.47;;;6.33;95.14
79067;BME280;68470;50.224;14.348;2023-03-14T04:21:19;97451.53;;;6.32;95.14
79067;BME280;68470;50.224;14.348;2023-03-14T04:23:45;97452.13;;;6.24;95.32
79067;BME280;68470;50.224;14.348;2023-03-14T04:26:11;97426.50;;;6.15;94.83
79067;BME280;68470;50.224;14.348;2023-03-14T04:28:37;97441.81;;;6.16;95.04
79067;BME280;68470;50.224;14.348;2023-03-14T04:31:14;97441.34;;;6.04;95.28
79067;BME280;68470;50.224;14.348;2023-03-14T04:33:40;97431.03;;;5.86;95.23
79067;BME280;68470;50.224;14.348;2023-03-14T04:36:06;97433.78;;;5.91;95.25
79067;BME280;68470;50.224;14.348;2023-03-14T04:38:33;97440.88;;;5.87;95.86
79067;BME280;68470;50.224;14.348;2023-03-14T04:40:59;97435.69;;;5.85;96.11
79067;BME280;68470;50.224;14.348;2023-03-14T04:43:26;97421.47;;;5.93;96.19
79067;BME280;68470;50.224;14.348;2023-03-14T04:45:56;97425.66;;;6.20;96.28
79067;BME280;68470;50.224;14.348;2023-03-14T04:48:23;97418.66;;;7.24;95.01
79067;BME280;68470;50.224;14.348;2023-03-14T04:50:49;97433.19;;;7.20;95.06
79067;BME280;68470;50.224;14.348;2023-03-14T04:53:16;97442.91;;;7.31;93.80
79067;BME280;68470;50.224;14.348;2023-03-14T04:55:46;97433.94;;;7.49;92.74
79067;BME280;68470;50.224;14.348;2023-03-14T04:58:13;97426.63;;;7.64;92.44
79067;BME280;68470;50.224;14.348;2023-03-14T05:00:38;97427.69;;;7.68;92.30
79067;BME280;68470;50.224;14.348;2023-03-14T05:03:04;97427.38;;;7.88;90.95
79067;BME280;68470;50.224;14.348;2023-03-14T05:05:30;97443.38;;;8.19;89.81
79067;BME280;68470;50.224;14.348;2023-03-14T05:07:56;97440.13;;;8.54;87.85
79067;BME280;68470;50.224;14.348;2023-03-14T05:10:22;97424.47;;;8.55;87.57
79067;BME280;68470;50.224;14.348;2023-03-14T05:12:48;97425.38;;;8.50;88.13
79067;BME280;68470;50.224;14.348;2023-03-14T05:15:13;97404.50;;;8.35;88.17
79067;BME280;68470;50.224;14.348;2023-03-14T05:17:39;97402.06;;;8.34;88.57
79067;BME280;68470;50.224;14.348;2023-03-14T05:20:05;97411.97;;;8.30;88.51
79067;BME280;68470;50.224;14.348;2023-03-14T05:22:34;97400.72;;;8.50;86.86
79067;BME280;68470;50.224;14.348;2023-03-14T05:25:00;97401.72;;;8.54;87.33
79067;BME280;68470;50.224;14.348;2023-03-14T05:27:26;97400.75;;;8.64;86.32
79067;BME280;68470;50.224;14.348;2023-03-14T05:29:52;97384.94;;;8.74;85.72
79067;BME280;68470;50.224;14.348;2023-03-14T05:32:18;97398.13;;;8.72;86.41
79067;BME280;68470;50.224;14.348;2023-03-14T05:34:43;97406.13;;;8.69;86.25
79067;BME280;68470;50.224;14.348;2023-03-14T05:37:09;97416.41;;;8.63;86.55
79067;BME280;68470;50.224;14.348;2023-03-14T05:39:35;97415.44;;;8.54;86.37
79067;BME280;68470;50.224;14.348;2023-03-14T05:42:01;97409.88;;;8.59;86.39
79067;BME280;68470;50.224;14.348;2023-03-14T05:44:27;97403.50;;;8.64;85.66
79067;BME280;68470;50.224;14.348;2023-03-14T05:46:53;97412.53;;;8.64;85.59
79067;BME280;68470;50.224;14.348;2023-03-14T05:49:19;97413.59;;;8.82;84.93
79067;BME280;68470;50.224;14.348;2023-03-14T05:51:45;97406.66;;;8.71;84.55
79067;BME280;68470;50.224;14.348;2023-03-14T05:54:10;97399.09;;;8.95;83.44
79067;BME280;68470;50.224;14.348;2023-03-14T05:56:36;97385.88;;;8.97;82.75
79067;BME280;68470;50.224;14.348;2023-03-14T05:59:02;97399.00;;;9.14;81.77
79067;BME280;68470;50.224;14.348;2023-03-14T06:01:29;97384.78;;;9.12;81.74
79067;BME280;68470;50.224;14.348;2023-03-14T06:03:55;97390.25;;;9.12;82.16
79067;BME280;68470;50.224;14.348;2023-03-14T06:06:21;97396.25;;;9.14;81.62
79067;BME280;68470;50.224;14.348;2023-03-14T06:08:47;97388.50;;;9.02;82.66
79067;BME280;68470;50.224;14.348;2023-03-14T06:11:13;97373.78;;;9.12;81.19
79067;BME280;68470;50.224;14.348;2023-03-14T06:13:39;97384.28;;;9.24;80.65
79067;BME280;68470;50.224;14.348;2023-03-14T06:16:05;97393.81;;;9.26;80.59
79067;BME280;68470;50.224;14.348;2023-03-14T06:18:31;97398.81;;;9.24;80.75
79067;BME280;68470;50.224;14.348;2023-03-14T06:20:57;97412.63;;;9.19;80.83
79067;BME280;68470;50.224;14.348;2023-03-14T06:23:23;97407.75;;;9.16;80.58
79067;BME280;68470;50.224;14.348;2023-03-14T06:25:51;97394.31;;;9.15;81.01
79067;BME280;68470;50.224;14.348;2023-03-14T06:28:17;97404.81;;;9.26;80.75
79067;BME280;68470;50.224;14.348;2023-03-14T06:30:43;97425.66;;;9.27;81.22
79067;BME280;68470;50.224;14.348;2023-03-14T06:33:09;97426.84;;;9.21;81.20
79067;BME280;68470;50.224;14.348;2023-03-14T06:35:35;97441.63;;;9.25;81.02
79067;BME280;68470;50.224;14.348;2023-03-14T06:38:01;97430.53;;;9.30;80.61
79067;BME280;68470;50.224;14.348;2023-03-14T06:40:27;97446.38;;;9.33;80.72
79067;BME280;68470;50.224;14.348;2023-03-14T06:42:53;97441.59;;;9.39;80.40
79067;BME280;68470;50.224;14.348;2023-03-14T06:45:19;97443.75;;;9.42;79.95
79067;BME280;68470;50.224;14.348;2023-03-14T06:47:45;97445.78;;;9.64;78.17
79067;BME280;68470;50.224;14.348;2023-03-14T06:50:11;97447.69;;;9.77;78.42
79067;BME280;68470;50.224;14.348;2023-03-14T06:52:37;97447.97;;;9.89;77.51
79067;BME280;68470;50.224;14.348;2023-03-14T06:55:03;97440.00;;;10.02;76.92
79067;BME280;68470;50.224;14.348;2023-03-14T06:57:29;97448.03;;;10.12;76.50
79067;BME280;68470;50.224;14.348;2023-03-14T06:59:55;97442.09;;;10.32;75.85
79067;BME280;68470;50.224;14.348;2023-03-14T07:02:22;97427.50;;;10.45;74.15
79067;BME280;68470;50.224;14.348;2023-03-14T07:04:48;97426.19;;;10.43;74.09
79067;BME280;68470;50.224;14.348;2023-03-14T07:07:15;97426.53;;;10.95;72.76
79067;BME280;68470;50.224;14.348;2023-03-14T07:09:42;97441.31;;;11.07;73.06
79067;BME280;68470;50.224;14.348;2023-03-14T07:12:07;97440.44;;;11.69;70.54
79067;BME280;68470;50.224;14.348;2023-03-14T07:14:33;97438.25;;;11.88;69.33
79067;BME280;68470;50.224;14.348;2023-03-14T07:16:59;97424.72;;;11.61;69.52
79067;BME280;68470;50.224;14.348;2023-03-14T07:19:25;97423.91;;;11.69;69.08
79067;BME280;68470;50.224;14.348;2023-03-14T07:21:51;97438.72;;;11.42;68.72
79067;BME280;68470;50.224;14.348;2023-03-14T07:24:17;97436.56;;;11.70;68.05
79067;BME280;68470;50.224;14.348;2023-03-14T07:26:43;97429.63;;;11.33;68.20
79067;BME280;68470;50.224;14.348;2023-03-14T07:29:09;97439.78;;;11.63;67.66
79067;BME280;68470;50.224;14.348;2023-03-14T07:31:35;97431.47;;;12.03;67.63
79067;BME280;68470;50.224;14.348;2023-03-14T07:34:01;97442.97;;;12.05;66.43
79067;BME280;68470;50.224;14.348;2023-03-14T07:36:27;97435.78;;;11.78;67.80
79067;BME280;68470;50.224;14.348;2023-03-14T07:38:53;97448.47;;;11.48;68.07
79067;BME280;68470;50.224;14.348;2023-03-14T07:41:19;97451.25;;;11.57;68.46
79067;BME280;68470;50.224;14.348;2023-03-14T07:43:46;97442.75;;;11.36;67.86
79067;BME280;68470;50.224;14.348;2023-03-14T07:46:12;97453.44;;;11.37;68.85
79067;BME280;68470;50.224;14.348;2023-03-14T07:48:38;97455.28;;;11.11;67.57
79067;BME280;68470;50.224;14.348;2023-03-14T07:51:04;97459.25;;;11.27;67.82
79067;BME280;68470;50.224;14.348;2023-03-14T07:53:30;97457.72;;;11.12;67.79
79067;BME280;68470;50.224;14.348;2023-03-14T07:55:56;97441.91;;;11.27;69.20
79067;BME280;68470;50.224;14.348;2023-03-14T07:58:22;97451.34;;;11.34;68.13
79067;BME280;68470;50.224;14.348;2023-03-14T08:00:49;97464.28;;;11.34;68.03
79067;BME280;68470;50.224;14.348;2023-03-14T08:03:15;97464.34;;;11.42;68.03
79067;BME280;68470;50.224;14.348;2023-03-14T08:05:42;97454.47;;;11.50;68.11
79067;BME280;68470;50.224;14.348;2023-03-14T08:08:08;97457.22;;;11.50;67.91
79067;BME280;68470;50.224;14.348;2023-03-14T08:10:34;97453.19;;;11.56;66.65
79067;BME280;68470;50.224;14.348;2023-03-14T08:13:01;97451.94;;;11.62;66.89
79067;BME280;68470;50.224;14.348;2023-03-14T08:15:29;97454.25;;;11.78;67.38
79067;BME280;68470;50.224;14.348;2023-03-14T08:17:56;97460.22;;;11.62;66.92
79067;BME280;68470;50.224;14.348;2023-03-14T08:20:24;97456.50;;;11.67;65.42
79067;BME280;68470;50.224;14.348;2023-03-14T08:22:50;97451.38;;;11.91;66.94
79067;BME280;68470;50.224;14.348;2023-03-14T08:25:17;97447.81;;;11.91;66.02
79067;BME280;68470;50.224;14.348;2023-03-14T08:27:43;97435.25;;;11.67;64.92
79067;BME280;68470;50.224;14.348;2023-03-14T08:30:11;97447.75;;;11.73;65.21
79067;BME280;68470;50.224;14.348;2023-03-14T08:32:38;97436.00;;;12.08;66.08
79067;BME280;68470;50.224;14.348;2023-03-14T08:35:05;97442.00;;;12.01;63.71
79067;BME280;68470;50.224;14.348;2023-03-14T08:37:32;97439.28;;;12.18;62.54
79067;BME280;68470;50.224;14.348;2023-03-14T08:39:58;97446.91;;;12.39;62.79
79067;BME280;68470;50.224;14.348;2023-03-14T08:42:25;97456.13;;;12.25;62.98
79067;BME280;68470;50.224;14.348;2023-03-14T08:44:51;97451.94;;;12.54;63.03
79067;BME280;68470;50.224;14.348;2023-03-14T08:47:18;97461.00;;;12.11;61.52
79067;BME280;68470;50.224;14.348;2023-03-14T08:49:44;97465.06;;;12.14;63.58
79067;BME280;68470;50.224;14.348;2023-03-14T08:52:11;97463.09;;;11.97;62.54
79067;BME280;68470;50.224;14.348;2023-03-14T08:54:37;97454.47;;;11.90;63.08
79067;BME280;68470;50.224;14.348;2023-03-14T08:57:04;97449.97;;;11.94;62.37
79067;BME280;68470;50.224;14.348;2023-03-14T08:59:29;97460.00;;;11.98;62.35
79067;BME280;68470;50.224;14.348;2023-03-14T09:01:55;97456.13;;;12.25;61.93
79067;BME280;68470;50.224;14.348;2023-03-14T09:04:21;97450.06;;;11.80;62.40
79067;BME280;68470;50.224;14.348;2023-03-14T09:06:47;97451.75;;;11.98;63.11
79067;BME280;68470;50.224;14.348;2023-03-14T09:09:13;97455.81;;;12.10;62.91
79067;BME280;68470;50.224;14.348;2023-03-14T09:11:40;97467.16;;;11.99;62.62
79067;BME280;68470;50.224;14.348;2023-03-14T09:14:05;97469.13;;;12.42;61.61
79067;BME280;68470;50.224;14.348;2023-03-14T09:16:33;97460.38;;;12.66;60.35
79067;BME280;68470;50.224;14.348;2023-03-14T09:18:59;97467.50;;;12.84;59.47
79067;BME280;68470;50.224;14.348;2023-03-14T09:21:26;97479.34;;;13.11;58.37
79067;BME280;68470;50.224;14.348;2023-03-14T09:23:52;97465.41;;;12.73;58.12
79067;BME280;68470;50.224;14.348;2023-03-14T09:26:19;97477.81;;;13.39;57.87
79067;BME280;68470;50.224;14.348;2023-03-14T09:28:45;97473.03;;;13.66;57.37
79067;BME280;68470;50.224;14.348;2023-03-14T09:31:12;97474.09;;;13.27;58.54
79067;BME280;68470;50.224;14.348;2023-03-14T09:33:38;97475.53;;;13.41;57.46
79067;BME280;68470;50.224;14.348;2023-03-14T09:36:05;97474.09;;;13.44;56.75
79067;BME280;68470;50.224;14.348;2023-03-14T09:38:31;97473.41;;;13.85;55.14
79067;BME280;68470;50.224;14.348;2023-03-14T09:41:00;97503.56;;;13.78;56.14
79067;BME280;68470;50.224;14.348;2023-03-14T09:43:29;97473.84;;;12.85;56.30
79067;BME280;68470;50.224;14.348;2023-03-14T09:45:57;97484.34;;;13.17;58.02
79067;BME280;68470;50.224;14.348;2023-03-14T09:48:32;97475.78;;;13.10;58.76
79067;BME280;68470;50.224;14.348;2023-03-14T09:51:01;97464.72;;;12.93;57.03
79067;BME280;68470;50.224;14.348;2023-03-14T09:53:49;97480.50;;;12.75;59.68
79067;BME280;68470;50.224;14.348;2023-03-14T09:56:24;97472.09;;;12.46;59.67
79067;BME280;68470;50.224;14.348;2023-03-14T09:59:00;97468.03;;;12.43;59.42
79067;BME280;68470;50.224;14.348;2023-03-14T10:01:31;97467.38;;;12.63;59.57
79067;BME280;68470;50.224;14.348;2023-03-14T10:04:01;97473.06;;;12.67;59.12
79067;BME280;68470;50.224;14.348;2023-03-14T10:06:30;97465.56;;;12.42;59.00
79067;BME280;68470;50.224;14.348;2023-03-14T10:08:56;97479.34;;;12.24;59.71
79067;BME280;68470;50.224;14.348;2023-03-14T10:11:24;97463.78;;;12.11;59.25
79067;BME280;68470;50.224;14.348;2023-03-14T10:14:08;97460.84;;;12.25;58.94
79067;BME280;68470;50.224;14.348;2023-03-14T10:16:37;97474.50;;;12.39;58.78
79067;BME280;68470;50.224;14.348;2023-03-14T10:19:10;97475.78;;;12.41;58.90
79067;BME280;68470;50.224;14.348;2023-03-14T10:21:41;97466.03;;;12.18;59.67
79067;BME280;68470;50.224;14.348;2023-03-14T10:24:19;97451.41;;;12.09;59.00
79067;BME280;68470;50.224;14.348;2023-03-14T10:26:52;97458.38;;;12.06;59.96
79067;BME280;68470;50.224;14.348;2023-03-14T10:29:18;97468.72;;;11.92;60.25
79067;BME280;68470;50.224;14.348;2023-03-14T10:32:05;97455.44;;;11.85;61.01
79067;BME280;68470;50.224;14.348;2023-03-14T10:34:37;97461.53;;;11.73;59.88
79067;BME280;68470;50.224;14.348;2023-03-14T10:37:18;97451.88;;;11.85;59.80
79067;BME280;68470;50.224;14.348;2023-03-14T10:39:51;97456.91;;;11.91;59.67
79067;BME280;68470;50.224;14.348;2023-03-14T10:42:21;97462.13;;;12.01;59.81
79067;BME280;68470;50.224;14.348;2023-03-14T10:44:55;97459.97;;;11.90;60.17
79067;BME280;68470;50.224;14.348;2023-03-14T10:47:23;97449.16;;;11.93;59.31
79067;BME280;68470;50.224;14.348;2023-03-14T10:49:50;97466.31;;;11.90;59.74
79067;BME280;68470;50.224;14.348;2023-03-14T10:52:27;97461.44;;;11.87;61.03
79067;BME280;68470;50.224;14.348;2023-03-14T10:54:58;97458.28;;;11.71;60.04
79067;BME280;68470;50.224;14.348;2023-03-14T10:57:25;97474.31;;;11.69;60.50
79067;BME280;68470;50.224;14.348;2023-03-14T10:59:52;97458.75;;;11.65;60.11
79067;BME280;68470;50.224;14.348;2023-03-14T11:08:11;97474.06;;;11.80;60.27
79067;BME280;68470;50.224;14.348;2023-03-14T11:10:45;97457.63;;;11.74;60.41
79067;BME280;68470;50.224;14.348;2023-03-14T11:13:26;97463.06;;;11.88;60.99
79067;BME280;68470;50.224;14.348;2023-03-14T11:27:21;97452.41;;;12.21;58.92
79067;BME280;68470;50.224;14.348;2023-03-14T11:35:22;97459.84;;;12.03;59.93
79067;BME280;68470;50.224;14.348;2023-03-14T11:37:54;97462.59;;;11.95;59.76
79067;BME280;68470;50.224;14.348;2023-03-14T11:40:24;97454.81;;;11.97;60.02
79067;BME280;68470;50.224;14.348;2023-03-14T11:45:37;97431.69;;;11.75;60.37
79067;BME280;68470;50.224;14.348;2023-03-14T11:50:40;97441.22;;;12.35;59.19
79067;BME280;68470;50.224;14.348;2023-03-14T11:53:22;97443.19;;;12.34;59.10
79067;BME280;68470;50.224;14.348;2023-03-14T11:55:49;97447.22;;;12.37;58.95
79067;BME280;68470;50.224;14.348;2023-03-14T11:58:27;97440.09;;;12.10;58.66
79067;BME280;68470;50.224;14.348;2023-03-14T12:00:56;97441.03;;;12.05;59.91
79067;BME280;68470;50.224;14.348;2023-03-14T12:03:36;97444.00;;;12.26;59.45
79067;BME280;68470;50.224;14.348;2023-03-14T12:08:42;97437.00;;;12.63;58.65
79067;BME280;68470;50.224;14.348;2023-03-14T12:13:39;97438.09;;;12.97;56.28
79067;BME280;68470;50.224;14.348;2023-03-14T12:18:46;97424.66;;;12.78;57.29
79067;BME280;68470;50.224;14.348;2023-03-14T12:21:12;97426.25;;;12.97;56.13
79067;BME280;68470;50.224;14.348;2023-03-14T12:23:57;97418.59;;;13.11;56.16
79067;BME280;68470;50.224;14.348;2023-03-14T12:26:50;97418.59;;;13.11;55.67
79067;BME280;68470;50.224;14.348;2023-03-14T12:29:16;97418.81;;;12.80;57.14
79067;BME280;68470;50.224;14.348;2023-03-14T12:31:45;97412.47;;;12.71;56.74
79067;BME280;68470;50.224;14.348;2023-03-14T12:45:31;97395.66;;;13.19;54.57
79067;BME280;68470;50.224;14.348;2023-03-14T12:48:11;97392.69;;;13.33;54.55
79067;BME280;68470;50.224;14.348;2023-03-14T12:50:42;97380.41;;;13.51;53.36
79067;BME280;68470;50.224;14.348;2023-03-14T13:01:26;97358.16;;;15.91;46.85
79067;BME280;68470;50.224;14.348;2023-03-14T13:03:56;97351.56;;;16.48;44.45
79067;BME280;68470;50.224;14.348;2023-03-14T13:06:49;97358.97;;;16.04;47.13
79067;BME280;68470;50.224;14.348;2023-03-14T13:11:53;97341.66;;;15.82;46.54
79067;BME280;68470;50.224;14.348;2023-03-14T13:14:20;97347.22;;;15.46;46.85
79067;BME280;68470;50.224;14.348;2023-03-14T13:16:49;97348.31;;;15.08;47.88
79067;BME280;68470;50.224;14.348;2023-03-14T13:19:19;97341.19;;;14.41;49.73
79067;BME280;68470;50.224;14.348;2023-03-14T13:21:47;97342.94;;;15.12;48.82
79067;BME280;68470;50.224;14.348;2023-03-14T13:24:24;97355.53;;;14.76;49.27
79067;BME280;68470;50.224;14.348;2023-03-14T13:26:53;97357.69;;;14.17;50.44
79067;BME280;68470;50.224;14.348;2023-03-14T13:29:24;97366.41;;;14.48;50.46
79067;BME280;68470;50.224;14.348;2023-03-14T13:31:58;97368.75;;;14.17;50.81
79067;BME280;68470;50.224;14.348;2023-03-14T13:34:28;97361.47;;;14.33;50.65
79067;BME280;68470;50.224;14.348;2023-03-14T13:36:54;97364.56;;;14.10;49.74
79067;BME280;68470;50.224;14.348;2023-03-14T13:39:23;97366.41;;;13.77;52.35
79067;BME280;68470;50.224;14.348;2023-03-14T13:41:50;97367.34;;;13.60;52.65
79067;BME280;68470;50.224;14.348;2023-03-14T13:44:29;97359.34;;;13.38;52.08
79067;BME280;68470;50.224;14.348;2023-03-14T13:47:00;97362.69;;;13.05;53.35
79067;BME280;68470;50.224;14.348;2023-03-14T13:49:28;97356.06;;;12.98;53.67
79067;BME280;68470;50.224;14.348;2023-03-14T13:51:58;97371.41;;;12.78;53.87
79067;BME280;68470;50.224;14.348;2023-03-14T13:54:26;97371.69;;;12.76;54.89
79067;BME280;68470;50.224;14.348;2023-03-14T13:57:03;97365.25;;;12.55;55.18
79067;BME280;68470;50.224;14.348;2023-03-14T13:59:32;97382.16;;;12.53;56.21
79067;BME280;68470;50.224;14.348;2023-03-14T14:02:00;97375.34;;;12.42;57.63